Time;durP1;ratioP1;P1;durP2;ratioP2;P2;SDS_P1;SDS_P2;PMS_P1;PMS_P2;Temp;Humidity;BMP_temperature;BMP_pressure;BME280_temperature;BME280_humidity;BME280_pressure;Samples;Min_cycle;Max_cycle;Signal;HPM_P1;HPM_P2
2023/06/16 00:00:34;;;;;;;;;;;19.30;61.40;;;;;;5089317;28;19916;-73
2023/06/16 00:03:01;;;;;;;;;;;19.30;61.50;;;;;;5090086;28;19971;-68
2023/06/16 00:05:28;;;;;;;;;;;19.20;61.40;;;;;;5088878;28;19947;-72
2023/06/16 00:07:54;;;;;;;;;;;19.20;61.40;;;;;;5090212;28;19956;-73
2023/06/16 00:10:20;;;;;;;;;;;19.10;61.40;;;;;;5090333;28;20025;-73
2023/06/16 00:12:45;;;;;;;;;;;19.00;61.50;;;;;;5090261;28;19919;-72
2023/06/16 00:15:11;;;;;;;;;;;19.00;61.50;;;;;;5090426;28;20540;-73
2023/06/16 00:17:44;;;;;;;;;;;18.90;61.40;;;;;;5090216;28;19970;-73
2023/06/16 00:20:10;;;;;;;;;;;18.90;61.50;;;;;;5090275;28;19933;-73
2023/06/16 00:22:36;;;;;;;;;;;18.90;61.40;;;;;;5088790;28;20064;-72
2023/06/16 00:25:01;;;;;;;;;;;18.90;61.30;;;;;;5090139;28;20007;-72
2023/06/16 00:27:27;;;;;;;;;;;18.80;61.30;;;;;;5090248;28;19920;-73
2023/06/16 00:29:52;;;;;;;;;;;18.70;61.20;;;;;;5090048;28;20368;-73
2023/06/16 00:32:18;;;;;;;;;;;18.70;61.20;;;;;;5089918;28;19912;-73
2023/06/16 00:34:45;;;;;;;;;;;18.60;61.10;;;;;;5090124;28;20005;-73
2023/06/16 00:37:10;;;;;;;;;;;18.60;61.10;;;;;;5089773;28;19909;-72
2023/06/16 00:39:36;;;;;;;;;;;18.60;61.10;;;;;;5089679;28;20439;-73
2023/06/16 00:42:01;;;;;;;;;;;18.60;61.10;;;;;;5088565;28;19965;-73
2023/06/16 00:44:27;;;;;;;;;;;18.50;61.20;;;;;;5089739;28;19912;-73
2023/06/16 00:46:53;;;;;;;;;;;18.40;61.30;;;;;;5088489;28;19923;-73
2023/06/16 00:49:19;;;;;;;;;;;18.30;61.20;;;;;;5089598;28;19961;-72
2023/06/16 00:51:46;;;;;;;;;;;18.30;61.30;;;;;;5089167;28;19912;-72
2023/06/16 00:54:15;;;;;;;;;;;18.20;61.40;;;;;;5088089;28;20288;-73
2023/06/16 00:56:41;;;;;;;;;;;18.20;61.40;;;;;;5087946;28;19923;-73
2023/06/16 00:59:07;;;;;;;;;;;18.20;61.40;;;;;;5089680;28;19909;-72
2023/06/16 01:01:34;;;;;;;;;;;18.20;61.30;;;;;;5089327;28;19943;-73
2023/06/16 01:04:00;;;;;;;;;;;18.10;61.20;;;;;;5089160;28;19924;-73
2023/06/16 01:06:41;;;;;;;;;;;18.10;61.20;;;;;;5087777;28;19916;-72
2023/06/16 01:09:13;;;;;;;;;;;18.10;61.20;;;;;;5089238;28;20334;-73
2023/06/16 01:12:03;;;;;;;;;;;18.10;61.20;;;;;;5089103;28;19909;-73
2023/06/16 01:14:47;;;;;;;;;;;18.10;61.10;;;;;;5069164;28;19912;-72
2023/06/16 01:17:15;;;;;;;;;;;18.10;61.20;;;;;;5088998;28;20276;-73
2023/06/16 01:19:44;;;;;;;;;;;18.10;61.20;;;;;;5088999;28;19908;-73
2023/06/16 01:22:14;;;;;;;;;;;18.10;61.20;;;;;;5088855;28;20198;-73
2023/06/16 01:24:42;;;;;;;;;;;18.10;61.10;;;;;;5089265;28;19908;-73
2023/06/16 01:27:08;;;;;;;;;;;18.10;61.10;;;;;;5088813;28;19912;-73
2023/06/16 01:29:36;;;;;;;;;;;18.10;61.20;;;;;;5088771;28;19969;-73
2023/06/16 01:32:03;;;;;;;;;;;18.10;61.20;;;;;;5088821;28;20024;-72
2023/06/16 01:34:29;;;;;;;;;;;18.10;61.30;;;;;;5088678;28;19955;-72
2023/06/16 01:36:55;;;;;;;;;;;18.00;61.20;;;;;;5088637;28;19931;-73
2023/06/16 01:39:21;;;;;;;;;;;18.00;61.20;;;;;;5088647;28;19912;-73
2023/06/16 01:41:47;;;;;;;;;;;18.10;61.30;;;;;;5088631;28;19981;-73
2023/06/16 01:44:12;;;;;;;;;;;18.10;61.20;;;;;;5089015;28;20011;-73
2023/06/16 01:46:38;;;;;;;;;;;18.10;61.10;;;;;;5088466;28;19916;-73
2023/06/16 01:49:05;;;;;;;;;;;18.10;61.10;;;;;;5070582;28;19916;-72
2023/06/16 01:51:30;;;;;;;;;;;18.10;61.20;;;;;;5088487;28;19915;-73
2023/06/16 01:53:56;;;;;;;;;;;18.10;61.20;;;;;;5088316;28;19916;-73
2023/06/16 01:56:22;;;;;;;;;;;18.10;61.10;;;;;;5086910;28;20404;-73
2023/06/16 01:58:47;;;;;;;;;;;18.10;61.00;;;;;;5088233;28;19931;-73
2023/06/16 02:01:19;;;;;;;;;;;18.10;61.10;;;;;;5088293;28;19916;-73
2023/06/16 02:04:08;;;;;;;;;;;18.10;61.00;;;;;;5087291;28;19920;-72
2023/06/16 02:06:37;;;;;;;;;;;18.10;60.90;;;;;;5082280;28;19920;-73
2023/06/16 02:09:04;;;;;;;;;;;18.10;61.00;;;;;;5086887;28;20372;-73
2023/06/16 02:11:30;;;;;;;;;;;18.00;60.90;;;;;;5087412;28;20367;-72
2023/06/16 02:13:56;;;;;;;;;;;18.00;60.80;;;;;;5088088;28;19916;-73
2023/06/16 02:16:21;;;;;;;;;;;18.00;60.80;;;;;;5088045;28;19920;-72
2023/06/16 02:18:53;;;;;;;;;;;18.00;60.80;;;;;;5088171;28;19908;-73
2023/06/16 02:21:19;;;;;;;;;;;17.90;60.90;;;;;;5088254;28;20400;-73
2023/06/16 02:23:45;;;;;;;;;;;17.90;61.00;;;;;;5088121;28;19916;-73
2023/06/16 02:26:11;;;;;;;;;;;17.80;61.00;;;;;;5087968;28;19920;-73
2023/06/16 02:28:36;;;;;;;;;;;17.80;60.90;;;;;;5088050;28;19913;-72
2023/06/16 02:31:02;;;;;;;;;;;17.80;60.80;;;;;;5087915;28;19958;-73
2023/06/16 02:33:28;;;;;;;;;;;17.70;60.70;;;;;;5086730;28;20166;-73
2023/06/16 02:35:53;;;;;;;;;;;17.70;60.80;;;;;;5087862;28;19922;-73
2023/06/16 02:38:19;;;;;;;;;;;17.60;60.80;;;;;;5087912;28;20335;-73
2023/06/16 02:40:45;;;;;;;;;;;17.60;61.50;;;;;;5087866;28;19916;-73
2023/06/16 02:43:10;;;;;;;;;;;17.50;61.00;;;;;;5087878;28;19926;-73
2023/06/16 02:45:36;;;;;;;;;;;17.50;61.10;;;;;;5087909;28;19916;-73
2023/06/16 02:48:01;;;;;;;;;;;17.40;61.10;;;;;;5087803;28;19920;-73
2023/06/16 02:50:27;;;;;;;;;;;17.30;61.20;;;;;;5087678;28;20091;-72
2023/06/16 02:52:54;;;;;;;;;;;17.20;61.20;;;;;;5087535;28;19943;-73
2023/06/16 02:55:19;;;;;;;;;;;17.10;61.30;;;;;;5086426;28;19912;-73
2023/06/16 02:57:45;;;;;;;;;;;16.90;61.40;;;;;;5086149;28;20407;-73
2023/06/16 03:00:11;;;;;;;;;;;16.80;62.00;;;;;;5086293;28;19912;-73
2023/06/16 03:02:37;;;;;;;;;;;16.70;61.60;;;;;;5087537;28;20458;-73
2023/06/16 03:05:03;;;;;;;;;;;16.60;61.70;;;;;;5087754;28;19916;-72
2023/06/16 03:07:33;;;;;;;;;;;16.60;61.70;;;;;;5087598;28;20256;-72
2023/06/16 03:09:59;;;;;;;;;;;16.70;61.60;;;;;;5087609;28;19908;-73
2023/06/16 03:12:24;;;;;;;;;;;16.70;61.60;;;;;;5087584;28;19912;-73
2023/06/16 03:14:50;;;;;;;;;;;16.80;61.60;;;;;;5087999;28;19919;-72
2023/06/16 03:17:20;;;;;;;;;;;16.70;61.40;;;;;;5091783;28;19912;-72
2023/06/16 03:19:48;;;;;;;;;;;16.70;61.50;;;;;;5091261;28;20460;-72
2023/06/16 03:22:14;;;;;;;;;;;16.60;61.50;;;;;;5091269;28;20300;-72
2023/06/16 03:24:41;;;;;;;;;;;16.50;61.50;;;;;;5091330;28;19908;-72
2023/06/16 03:27:08;;;;;;;;;;;16.60;61.60;;;;;;5091176;28;19912;-72
2023/06/16 03:29:34;;;;;;;;;;;16.60;61.60;;;;;;5091130;28;19916;-72
2023/06/16 03:32:00;;;;;;;;;;;16.60;61.50;;;;;;5091458;28;20405;-72
2023/06/16 03:34:26;;;;;;;;;;;16.70;61.60;;;;;;5090962;28;20003;-73
2023/06/16 03:36:52;;;;;;;;;;;16.70;61.50;;;;;;5090976;28;19912;-72
2023/06/16 03:39:17;;;;;;;;;;;16.80;61.50;;;;;;5090996;28;19916;-72
2023/06/16 03:41:44;;;;;;;;;;;16.80;61.50;;;;;;5090862;28;19917;-72
2023/06/16 03:44:09;;;;;;;;;;;16.90;61.50;;;;;;5090957;28;19948;-72
2023/06/16 03:46:35;;;;;;;;;;;17.00;61.40;;;;;;5089569;28;19919;-72
2023/06/16 03:49:00;;;;;;;;;;;17.00;61.30;;;;;;5090800;28;19916;-73
2023/06/16 03:51:26;;;;;;;;;;;16.90;61.30;;;;;;5090652;28;20282;-73
2023/06/16 03:53:52;;;;;;;;;;;16.80;61.30;;;;;;5089084;28;19916;-72
2023/06/16 03:56:18;;;;;;;;;;;16.80;61.30;;;;;;5090512;28;20429;-72
2023/06/16 03:58:43;;;;;;;;;;;16.70;61.40;;;;;;5090233;28;19935;-72
2023/06/16 04:01:09;;;;;;;;;;;16.60;61.50;;;;;;5090089;28;19920;-73
2023/06/16 04:03:35;;;;;;;;;;;16.60;61.40;;;;;;5090140;28;20364;-73
2023/06/16 04:06:01;;;;;;;;;;;16.60;61.30;;;;;;5090520;28;19912;-72
2023/06/16 04:08:27;;;;;;;;;;;16.60;61.20;;;;;;5088844;28;19958;-72
2023/06/16 04:10:57;;;;;;;;;;;16.60;61.30;;;;;;5090284;28;19916;-72
2023/06/16 04:13:25;;;;;;;;;;;16.50;61.40;;;;;;5090141;28;20364;-72
2023/06/16 04:15:51;;;;;;;;;;;16.50;61.40;;;;;;5089939;28;19939;-72
2023/06/16 04:18:17;;;;;;;;;;;16.50;61.50;;;;;;5090165;28;20423;-72
2023/06/16 04:20:42;;;;;;;;;;;16.50;61.70;;;;;;5088561;28;19947;-72
2023/06/16 04:23:09;;;;;;;;;;;16.50;61.60;;;;;;5089925;28;19920;-72
2023/06/16 04:25:35;;;;;;;;;;;16.60;61.60;;;;;;5089938;28;19951;-73
2023/06/16 04:28:02;;;;;;;;;;;16.70;61.60;;;;;;5089526;28;20281;-72
2023/06/16 04:30:30;;;;;;;;;;;16.70;61.50;;;;;;5090047;28;20008;-73
2023/06/16 04:32:58;;;;;;;;;;;16.80;61.30;;;;;;5089866;28;19908;-73
2023/06/16 04:35:27;;;;;;;;;;;16.90;61.20;;;;;;5088537;28;19912;-72
2023/06/16 04:37:57;;;;;;;;;;;17.10;61.20;;;;;;5089896;28;20272;-72
2023/06/16 04:40:23;;;;;;;;;;;17.20;61.10;;;;;;5089768;28;19919;-72
2023/06/16 04:42:49;;;;;;;;;;;17.30;61.50;;;;;;5089787;28;20368;-72
2023/06/16 04:45:15;;;;;;;;;;;17.40;61.10;;;;;;5089728;28;19965;-72
2023/06/16 04:47:42;;;;;;;;;;;17.40;61.10;;;;;;5089295;28;20002;-72
2023/06/16 04:50:09;;;;;;;;;;;17.50;61.30;;;;;;5089242;28;19912;-72
2023/06/16 04:52:37;;;;;;;;;;;17.60;61.30;;;;;;5089227;28;19996;-72
2023/06/16 04:55:04;;;;;;;;;;;17.80;61.20;;;;;;5089209;28;20265;-73
2023/06/16 04:57:31;;;;;;;;;;;18.00;61.10;;;;;;5088985;28;19923;-73
2023/06/16 04:59:57;;;;;;;;;;;18.10;61.00;;;;;;5088998;28;20189;-73
2023/06/16 05:02:23;;;;;;;;;;;18.10;61.00;;;;;;5088881;28;20003;-73
2023/06/16 05:04:48;;;;;;;;;;;18.10;61.00;;;;;;5089195;28;19912;-73
2023/06/16 05:07:14;;;;;;;;;;;18.00;61.10;;;;;;5089160;28;19922;-73
2023/06/16 05:09:40;;;;;;;;;;;18.00;61.40;;;;;;5089149;28;19915;-73
2023/06/16 05:12:06;;;;;;;;;;;18.00;61.30;;;;;;5089033;28;19916;-72
2023/06/16 05:14:32;;;;;;;;;;;18.10;61.40;;;;;;5087536;28;20368;-73
2023/06/16 05:16:58;;;;;;;;;;;18.10;61.40;;;;;;5088674;28;19908;-73
2023/06/16 05:19:23;;;;;;;;;;;18.10;61.40;;;;;;5089050;28;19912;-73
2023/06/16 05:21:49;;;;;;;;;;;18.20;61.50;;;;;;5088823;28;20261;-72
2023/06/16 05:24:15;;;;;;;;;;;18.30;61.40;;;;;;5087695;28;20299;-73
2023/06/16 05:26:41;;;;;;;;;;;18.30;61.20;;;;;;5088736;28;20005;-73
2023/06/16 05:29:06;;;;;;;;;;;18.30;61.10;;;;;;5088788;28;19915;-73
2023/06/16 05:31:33;;;;;;;;;;;18.40;61.10;;;;;;5088513;28;19912;-73
2023/06/16 05:33:58;;;;;;;;;;;18.50;61.20;;;;;;5088618;28;19916;-73
2023/06/16 05:36:28;;;;;;;;;;;18.50;61.30;;;;;;5088619;28;20364;-73
2023/06/16 05:38:54;;;;;;;;;;;18.60;61.30;;;;;;5088629;28;19912;-73
2023/06/16 05:41:23;;;;;;;;;;;18.70;61.20;;;;;;5088896;28;19908;-72
2023/06/16 05:43:50;;;;;;;;;;;18.80;61.30;;;;;;5088438;28;19916;-72
2023/06/16 05:46:16;;;;;;;;;;;18.90;61.30;;;;;;5088914;28;19991;-73
2023/06/16 05:48:42;;;;;;;;;;;19.00;61.30;;;;;;5088548;28;19908;-73
2023/06/16 05:51:07;;;;;;;;;;;19.10;61.20;;;;;;5088417;28;19947;-73
2023/06/16 05:53:33;;;;;;;;;;;19.20;61.20;;;;;;5086900;28;20457;-73
2023/06/16 05:55:58;;;;;;;;;;;19.30;61.10;;;;;;5086824;28;19931;-73
2023/06/16 05:58:24;;;;;;;;;;;19.30;61.00;;;;;;5086913;28;19916;-73
2023/06/16 06:00:50;;;;;;;;;;;19.50;61.20;;;;;;5088732;28;19912;-73
2023/06/16 06:03:15;;;;;;;;;;;19.90;61.40;;;;;;5088164;28;19920;-73
2023/06/16 06:05:41;;;;;;;;;;;20.70;61.20;;;;;;5086943;28;20287;-74
2023/06/16 06:08:07;;;;;;;;;;;21.50;60.40;;;;;;5087989;28;20007;-73
2023/06/16 06:10:32;;;;;;;;;;;22.20;60.00;;;;;;5086601;28;20318;-74
2023/06/16 06:13:01;;;;;;;;;;;22.60;59.70;;;;;;5087909;28;19937;-74
2023/06/16 06:15:27;;;;;;;;;;;22.90;59.50;;;;;;5087981;28;19909;-74
2023/06/16 06:17:53;;;;;;;;;;;23.10;59.40;;;;;;5088012;28;19981;-74
2023/06/16 06:20:18;;;;;;;;;;;23.10;59.40;;;;;;5088199;28;19912;-73
2023/06/16 06:22:44;;;;;;;;;;;23.00;59.50;;;;;;5087968;28;19944;-73
2023/06/16 06:25:10;;;;;;;;;;;22.60;59.80;;;;;;5086757;28;20376;-72
2023/06/16 06:27:36;;;;;;;;;;;22.40;60.00;;;;;;5087742;28;20281;-73
2023/06/16 06:30:02;;;;;;;;;;;22.30;60.10;;;;;;5086376;28;20011;-73
2023/06/16 06:32:28;;;;;;;;;;;22.00;60.20;;;;;;5087814;28;19912;-73
2023/06/16 06:34:53;;;;;;;;;;;21.90;60.70;;;;;;5087549;28;19931;-73
2023/06/16 06:37:19;;;;;;;;;;;21.90;60.70;;;;;;5087509;28;19912;-73
2023/06/16 06:39:45;;;;;;;;;;;21.80;61.00;;;;;;5087548;28;19923;-73
2023/06/16 06:42:12;;;;;;;;;;;21.80;61.20;;;;;;5087590;28;19908;-73
2023/06/16 06:44:37;;;;;;;;;;;22.10;61.80;;;;;;5087641;28;19919;-74
2023/06/16 06:47:03;;;;;;;;;;;23.10;61.70;;;;;;5087660;28;19916;-72
2023/06/16 06:49:28;;;;;;;;;;;24.40;60.80;;;;;;5087371;28;19941;-71
2023/06/16 06:51:54;;;;;;;;;;;25.50;59.70;;;;;;5091529;28;20011;-72
2023/06/16 06:54:22;;;;;;;;;;;25.50;59.00;;;;;;5091370;28;19921;-72
2023/06/16 06:56:47;;;;;;;;;;;25.10;59.10;;;;;;5090982;28;19914;-72
2023/06/16 06:59:13;;;;;;;;;;;24.70;59.50;;;;;;5089873;28;20015;-71
2023/06/16 07:01:38;;;;;;;;;;;24.30;59.80;;;;;;5091021;28;19919;-71
2023/06/16 07:04:04;;;;;;;;;;;24.10;60.30;;;;;;5091114;28;20199;-71
2023/06/16 07:06:30;;;;;;;;;;;23.90;60.60;;;;;;5091109;28;20314;-72
2023/06/16 07:08:58;;;;;;;;;;;23.80;60.60;;;;;;5091424;28;19912;-71
2023/06/16 07:11:23;;;;;;;;;;;23.60;60.60;;;;;;5089695;28;20368;-72
2023/06/16 07:13:49;;;;;;;;;;;23.50;60.70;;;;;;5089670;28;19920;-72
2023/06/16 07:16:15;;;;;;;;;;;23.40;60.70;;;;;;5091085;28;19974;-72
2023/06/16 07:18:40;;;;;;;;;;;23.30;60.70;;;;;;5091059;28;19966;-71
2023/06/16 07:21:06;;;;;;;;;;;23.20;60.90;;;;;;5091054;28;20006;-72
2023/06/16 07:23:32;;;;;;;;;;;23.10;61.10;;;;;;5090786;28;19912;-71
2023/06/16 07:25:57;;;;;;;;;;;23.30;61.10;;;;;;5090947;28;20398;-71
2023/06/16 07:28:23;;;;;;;;;;;23.50;61.20;;;;;;5091009;28;20429;-71
2023/06/16 07:30:48;;;;;;;;;;;23.80;61.40;;;;;;5090741;28;19912;-72
2023/06/16 07:33:14;;;;;;;;;;;24.50;61.70;;;;;;5090456;28;20003;-71
2023/06/16 07:35:40;;;;;;;;;;;25.70;61.30;;;;;;5090529;28;19994;-72
2023/06/16 07:38:05;;;;;;;;;;;27.00;60.80;;;;;;5090622;28;20228;-72
2023/06/16 07:40:31;;;;;;;;;;;27.70;60.10;;;;;;5090243;28;19916;-72
2023/06/16 07:42:56;;;;;;;;;;;27.60;59.90;;;;;;5090977;28;19985;-72
2023/06/16 07:45:22;;;;;;;;;;;27.60;60.60;;;;;;5090324;28;19916;-72
2023/06/16 07:47:48;;;;;;;;;;;28.20;60.90;;;;;;5089816;28;20003;-72
2023/06/16 07:50:14;;;;;;;;;;;29.10;60.90;;;;;;5090076;28;19929;-72
2023/06/16 07:52:40;;;;;;;;;;;30.00;60.40;;;;;;5090110;28;19919;-74
2023/06/16 07:55:06;;;;;;;;;;;30.70;60.10;;;;;;5089935;28;20014;-72
2023/06/16 07:57:33;;;;;;;;;;;31.30;59.90;;;;;;5089609;28;19951;-72
2023/06/16 07:59:59;;;;;;;;;;;31.80;59.70;;;;;;5090550;28;19908;-72
2023/06/16 08:02:24;;;;;;;;;;;31.80;59.00;;;;;;5087945;28;20001;-74
2023/06/16 08:04:50;;;;;;;;;;;31.50;59.30;;;;;;5098111;28;19920;-73
2023/06/16 08:07:16;;;;;;;;;;;31.30;59.30;;;;;;5099601;28;19912;-73
2023/06/16 08:09:41;;;;;;;;;;;31.10;59.80;;;;;;5098676;28;19920;-73
2023/06/16 08:12:09;;;;;;;;;;;31.10;60.20;;;;;;5100425;28;19907;-73
2023/06/16 08:14:35;;;;;;;;;;;31.00;60.50;;;;;;5100820;28;20518;-73
2023/06/16 08:17:01;;;;;;;;;;;30.70;60.60;;;;;;5098943;28;19912;-73
2023/06/16 08:19:26;;;;;;;;;;;30.10;60.80;;;;;;5097575;28;19923;-73
2023/06/16 08:21:52;;;;;;;;;;;29.60;61.20;;;;;;5099031;28;20332;-73
2023/06/16 08:24:17;;;;;;;;;;;29.60;62.20;;;;;;5101010;28;19923;-73
2023/06/16 08:26:44;;;;;;;;;;;30.40;62.50;;;;;;5100157;28;19923;-73
2023/06/16 08:29:10;;;;;;;;;;;31.50;62.40;;;;;;5099485;28;19962;-73
2023/06/16 08:31:36;;;;;;;;;;;32.80;62.20;;;;;;5099473;28;20341;-73
2023/06/16 08:34:01;;;;;;;;;;;33.90;61.80;;;;;;5101805;28;20149;-73
2023/06/16 08:36:27;;;;;;;;;;;34.70;61.70;;;;;;5098210;28;19915;-73
2023/06/16 08:38:52;;;;;;;;;;;34.60;60.60;;;;;;5100627;28;19928;-73
2023/06/16 08:41:18;;;;;;;;;;;33.90;60.40;;;;;;5099490;28;19913;-73
2023/06/16 08:43:48;;;;;;;;;;;33.40;60.60;;;;;;5098332;28;19920;-74
2023/06/16 08:46:13;;;;;;;;;;;33.10;61.00;;;;;;5099031;28;19916;-74
2023/06/16 08:48:39;;;;;;;;;;;33.00;61.80;;;;;;5097827;28;19917;-75
2023/06/16 08:51:05;;;;;;;;;;;33.50;62.30;;;;;;5099288;28;19920;-74
2023/06/16 08:53:33;;;;;;;;;;;34.10;62.50;;;;;;5099627;28;20002;-74
2023/06/16 08:56:00;;;;;;;;;;;34.80;62.50;;;;;;5102559;28;19918;-74
2023/06/16 08:58:27;;;;;;;;;;;35.40;62.30;;;;;;5109810;28;19912;-74
2023/06/16 09:00:53;;;;;;;;;;;35.80;62.40;;;;;;5109656;28;20054;-73
2023/06/16 09:03:19;;;;;;;;;;;36.20;62.60;;;;;;5106922;28;20014;-73
2023/06/16 09:05:46;;;;;;;;;;;36.50;62.60;;;;;;5098014;28;20299;-73
2023/06/16 09:08:11;;;;;;;;;;;36.60;62.70;;;;;;5101065;28;19908;-74
2023/06/16 09:10:37;;;;;;;;;;;36.40;62.40;;;;;;5097984;28;19916;-73
2023/06/16 09:13:03;;;;;;;;;;;35.90;62.50;;;;;;5094038;28;20128;-74
2023/06/16 09:15:29;;;;;;;;;;;35.80;63.10;;;;;;5089337;28;19916;-74
2023/06/16 09:17:56;;;;;;;;;;;35.20;62.60;;;;;;5098433;28;19951;-74
2023/06/16 09:20:24;;;;;;;;;;;34.70;62.90;;;;;;5099007;28;19920;-74
2023/06/16 09:22:56;;;;;;;;;;;34.20;63.10;;;;;;5099738;28;20135;-75
2023/06/16 09:25:23;;;;;;;;;;;33.90;63.30;;;;;;5098566;28;19931;-74
2023/06/16 09:27:50;;;;;;;;;;;33.50;63.50;;;;;;5103828;28;20306;-74
2023/06/16 09:30:18;;;;;;;;;;;33.00;63.20;;;;;;5099366;28;19912;-74
2023/06/16 09:32:47;;;;;;;;;;;32.30;63.10;;;;;;5099018;28;19912;-74
2023/06/16 09:35:16;;;;;;;;;;;31.50;63.50;;;;;;5097756;28;20423;-74
2023/06/16 09:37:42;;;;;;;;;;;31.00;63.90;;;;;;5098539;28;20238;-74
2023/06/16 09:40:09;;;;;;;;;;;30.60;64.00;;;;;;5099614;28;19926;-74
2023/06/16 09:42:36;;;;;;;;;;;30.70;64.40;;;;;;5097726;28;20367;-74
2023/06/16 09:45:08;;;;;;;;;;;31.10;64.40;;;;;;5098332;27;19908;-75
2023/06/16 09:47:36;;;;;;;;;;;31.50;63.90;;;;;;5100252;28;19920;-75
2023/06/16 09:50:01;;;;;;;;;;;31.80;63.80;;;;;;5098108;28;20327;-74
2023/06/16 09:52:27;;;;;;;;;;;32.00;63.20;;;;;;5098016;28;19946;-75
2023/06/16 09:54:55;;;;;;;;;;;31.90;62.70;;;;;;5097139;28;19918;-75
2023/06/16 09:57:21;;;;;;;;;;;31.60;62.50;;;;;;5096948;28;19918;-75
2023/06/16 09:59:46;;;;;;;;;;;31.20;62.40;;;;;;5099181;28;19908;-76
2023/06/16 10:02:13;;;;;;;;;;;30.80;62.50;;;;;;5099101;28;19920;-74
2023/06/16 10:04:40;;;;;;;;;;;30.50;62.40;;;;;;5099873;28;19912;-74
2023/06/16 10:07:07;;;;;;;;;;;30.20;62.40;;;;;;5100091;28;19912;-75
2023/06/16 10:09:37;;;;;;;;;;;29.70;62.40;;;;;;5097344;28;20253;-74
2023/06/16 10:12:04;;;;;;;;;;;29.30;62.80;;;;;;5101841;28;20348;-74
2023/06/16 10:14:31;;;;;;;;;;;29.10;62.90;;;;;;5100224;28;19923;-73
2023/06/16 10:16:58;;;;;;;;;;;28.80;62.90;;;;;;5100145;28;19931;-73
2023/06/16 10:19:24;;;;;;;;;;;28.70;63.00;;;;;;5098382;28;19957;-74
2023/06/16 10:21:50;;;;;;;;;;;28.50;62.80;;;;;;5096783;28;20413;-71
2023/06/16 10:24:16;;;;;;;;;;;28.40;62.70;;;;;;5097516;28;20403;-75
2023/06/16 10:26:42;;;;;;;;;;;28.40;62.70;;;;;;5095952;28;20351;-75
2023/06/16 10:29:08;;;;;;;;;;;28.30;62.60;;;;;;5097485;28;19915;-73
2023/06/16 10:31:34;;;;;;;;;;;28.20;62.40;;;;;;5096154;28;19912;-73
2023/06/16 10:33:59;;;;;;;;;;;28.10;62.40;;;;;;5092347;28;20019;-72
2023/06/16 10:36:33;;;;;;;;;;;28.00;62.40;;;;;;5096250;28;19951;-73
2023/06/16 10:39:08;;;;;;;;;;;28.00;62.40;;;;;;5095832;28;20248;-72
2023/06/16 10:41:47;;;;;;;;;;;27.80;62.50;;;;;;5095641;28;20011;-72
2023/06/16 10:44:23;;;;;;;;;;;27.70;62.70;;;;;;5097483;28;19963;-74
2023/06/16 10:47:07;;;;;;;;;;;27.80;62.70;;;;;;5095948;28;19912;-73
2023/06/16 10:49:43;;;;;;;;;;;27.80;62.70;;;;;;5102219;28;19918;-74
2023/06/16 10:52:08;;;;;;;;;;;27.80;62.70;;;;;;5096101;28;19912;-74
2023/06/16 10:54:37;;;;;;;;;;;27.80;62.70;;;;;;5094231;28;19926;-73
2023/06/16 10:57:06;;;;;;;;;;;28.00;62.70;;;;;;5099103;28;19928;-72
2023/06/16 10:59:52;;;;;;;;;;;28.20;62.50;;;;;;5099052;28;19965;-73
2023/06/16 11:02:20;;;;;;;;;;;28.30;62.30;;;;;;5095824;28;19920;-73
2023/06/16 11:05:04;;;;;;;;;;;28.20;62.00;;;;;;5095005;28;19950;-74
2023/06/16 11:07:30;;;;;;;;;;;28.10;62.00;;;;;;5092751;28;20404;-74
2023/06/16 11:09:59;;;;;;;;;;;28.00;62.10;;;;;;5082953;28;19920;-73
2023/06/16 11:12:25;;;;;;;;;;;28.00;62.10;;;;;;5097427;28;19927;-74
2023/06/16 11:14:52;;;;;;;;;;;28.00;62.10;;;;;;5096191;28;20315;-72
2023/06/16 11:17:17;;;;;;;;;;;28.00;61.80;;;;;;5098515;28;19908;-73
2023/06/16 11:19:43;;;;;;;;;;;28.00;61.80;;;;;;5091836;28;19965;-72
2023/06/16 11:22:08;;;;;;;;;;;27.80;61.70;;;;;;5101354;28;19912;-74
2023/06/16 11:24:34;;;;;;;;;;;27.70;61.70;;;;;;5098051;28;20373;-73
2023/06/16 11:27:01;;;;;;;;;;;27.60;61.60;;;;;;5098045;28;19929;-73
2023/06/16 11:29:28;;;;;;;;;;;27.40;61.60;;;;;;5100932;28;20399;-74
2023/06/16 11:31:56;;;;;;;;;;;27.10;61.50;;;;;;5100876;28;19919;-74
2023/06/16 11:34:22;;;;;;;;;;;26.70;61.40;;;;;;5097953;28;19922;-73
2023/06/16 11:36:47;;;;;;;;;;;26.40;61.60;;;;;;5095315;28;19912;-74
2023/06/16 11:39:13;;;;;;;;;;;26.20;61.80;;;;;;5101318;28;19922;-72
2023/06/16 11:41:38;;;;;;;;;;;26.00;61.60;;;;;;5095536;28;19912;-71
2023/06/16 11:44:04;;;;;;;;;;;25.50;61.10;;;;;;5100360;28;19919;-71
2023/06/16 11:46:32;;;;;;;;;;;24.90;60.80;;;;;;5099914;28;20007;-72
2023/06/16 11:48:59;;;;;;;;;;;24.30;60.90;;;;;;5100800;28;19912;-71
2023/06/16 11:51:26;;;;;;;;;;;23.80;61.30;;;;;;5098235;28;19914;-72
2023/06/16 11:53:53;;;;;;;;;;;23.50;61.80;;;;;;5098908;28;19922;-75
2023/06/16 11:56:20;;;;;;;;;;;23.30;62.20;;;;;;5097658;28;19911;-73
2023/06/16 11:58:48;;;;;;;;;;;23.50;62.40;;;;;;5100683;28;19995;-72
2023/06/16 12:01:14;;;;;;;;;;;23.80;62.30;;;;;;5099111;28;20344;-71
2023/06/16 12:03:41;;;;;;;;;;;24.00;62.00;;;;;;5100957;28;20383;-71
2023/06/16 12:06:07;;;;;;;;;;;24.30;61.90;;;;;;5100227;28;19911;-71
2023/06/16 12:08:35;;;;;;;;;;;24.50;61.70;;;;;;5102149;28;19922;-72
2023/06/16 12:11:01;;;;;;;;;;;24.60;61.50;;;;;;5099850;28;19911;-71
2023/06/16 12:13:27;;;;;;;;;;;24.60;61.50;;;;;;5097466;28;20036;-72
2023/06/16 12:15:52;;;;;;;;;;;24.70;61.60;;;;;;5101507;28;20361;-72
2023/06/16 12:18:18;;;;;;;;;;;24.90;61.60;;;;;;5097049;28;19956;-72
2023/06/16 12:20:44;;;;;;;;;;;25.10;61.60;;;;;;5090407;28;20412;-71
2023/06/16 12:23:10;;;;;;;;;;;25.30;61.60;;;;;;5090086;28;19917;-71
2023/06/16 12:25:36;;;;;;;;;;;25.40;61.50;;;;;;5088582;28;19908;-71
2023/06/16 12:28:01;;;;;;;;;;;25.50;61.40;;;;;;5090235;28;19919;-71
2023/06/16 12:30:33;;;;;;;;;;;25.50;61.40;;;;;;5098389;28;20856;-72
2023/06/16 12:33:06;;;;;;;;;;;25.60;61.40;;;;;;5099624;28;19924;-72
2023/06/16 12:35:32;;;;;;;;;;;25.70;61.40;;;;;;5106409;28;19927;-73
2023/06/16 12:37:58;;;;;;;;;;;25.60;61.40;;;;;;5109828;28;19911;-71
2023/06/16 12:40:28;;;;;;;;;;;25.60;61.40;;;;;;5110267;28;19949;-73
2023/06/16 12:42:54;;;;;;;;;;;25.60;61.50;;;;;;5110348;28;19995;-72
2023/06/16 12:45:19;;;;;;;;;;;25.50;61.40;;;;;;5110554;27;19919;-74
2023/06/16 12:47:45;;;;;;;;;;;25.50;61.40;;;;;;5109645;28;20635;-72
2023/06/16 12:50:10;;;;;;;;;;;25.40;61.50;;;;;;5110278;28;19911;-73
2023/06/16 12:52:36;;;;;;;;;;;25.40;61.60;;;;;;5110036;28;19959;-72
2023/06/16 12:55:03;;;;;;;;;;;25.40;61.70;;;;;;5110019;28;19920;-72
2023/06/16 12:57:29;;;;;;;;;;;25.40;61.80;;;;;;5109939;27;19908;-72
2023/06/16 12:59:55;;;;;;;;;;;25.40;61.80;;;;;;5110055;28;19912;-73
2023/06/16 13:02:21;;;;;;;;;;;25.50;61.90;;;;;;5109950;28;19942;-73
2023/06/16 13:04:47;;;;;;;;;;;25.50;61.80;;;;;;5110180;27;19908;-72
2023/06/16 13:07:12;;;;;;;;;;;25.50;61.80;;;;;;5110101;28;20481;-73
2023/06/16 13:09:38;;;;;;;;;;;25.50;61.90;;;;;;5109907;28;20402;-73
2023/06/16 13:12:08;;;;;;;;;;;25.50;61.80;;;;;;5109620;28;19912;-73
2023/06/16 13:14:33;;;;;;;;;;;25.40;61.70;;;;;;5109521;28;20439;-74
2023/06/16 13:16:59;;;;;;;;;;;25.30;61.50;;;;;;5108521;28;19911;-73
2023/06/16 13:19:25;;;;;;;;;;;25.20;61.40;;;;;;5109763;28;20478;-72
2023/06/16 13:21:51;;;;;;;;;;;25.00;61.30;;;;;;5109609;28;19923;-72
2023/06/16 13:24:17;;;;;;;;;;;24.90;61.40;;;;;;5109916;28;19915;-73
2023/06/16 13:26:43;;;;;;;;;;;24.80;61.40;;;;;;5109303;28;19915;-72
2023/06/16 13:29:11;;;;;;;;;;;24.70;61.90;;;;;;5110249;28;19908;-72
2023/06/16 13:31:36;;;;;;;;;;;24.60;61.30;;;;;;5090672;28;19926;-72
2023/06/16 13:34:02;;;;;;;;;;;24.50;61.30;;;;;;5106037;28;20287;-74
2023/06/16 13:36:28;;;;;;;;;;;24.50;61.30;;;;;;5103814;28;19908;-73
2023/06/16 13:38:53;;;;;;;;;;;24.40;61.20;;;;;;5092695;28;20005;-78
2023/06/16 13:41:20;;;;;;;;;;;24.30;61.10;;;;;;5090698;28;19908;-78
2023/06/16 13:43:47;;;;;;;;;;;24.20;61.10;;;;;;5100153;28;19916;-73
2023/06/16 13:46:13;;;;;;;;;;;24.10;61.10;;;;;;5099940;28;19919;-74
2023/06/16 13:48:39;;;;;;;;;;;24.00;61.20;;;;;;5098883;28;19916;-74
2023/06/16 13:51:04;;;;;;;;;;;24.00;61.30;;;;;;5092891;28;19912;-71
2023/06/16 13:53:30;;;;;;;;;;;23.90;61.30;;;;;;5096101;28;20029;-71
2023/06/16 13:55:56;;;;;;;;;;;24.00;61.40;;;;;;5098103;28;19912;-71
2023/06/16 13:58:21;;;;;;;;;;;24.00;61.40;;;;;;5094925;28;19916;-70
2023/06/16 14:00:47;;;;;;;;;;;24.10;61.40;;;;;;5097604;28;20033;-71
2023/06/16 14:03:13;;;;;;;;;;;24.10;61.30;;;;;;5104967;28;19927;-73
2023/06/16 14:05:39;;;;;;;;;;;24.10;61.20;;;;;;5096687;28;19916;-73
2023/06/16 14:08:05;;;;;;;;;;;24.10;61.30;;;;;;5088512;28;19936;-74
2023/06/16 14:10:30;;;;;;;;;;;24.10;61.20;;;;;;5088223;28;19955;-73
2023/06/16 14:12:56;;;;;;;;;;;24.10;61.10;;;;;;5088584;28;19919;-73